Time;durP1;ratioP1;P1;durP2;ratioP2;P2;SDS_P1;SDS_P2;PMS_P1;PMS_P2;Temp;Humidity;BMP_temperature;BMP_pressure;BME280_temperature;BME280_humidity;BME280_pressure;Samples;Min_cycle;Max_cycle;Signal;HPM_P1;HPM_P2
2023/06/16 00:01:03;;;;;;;4.75;3.70;;;20.50;82.10;;;;;;5034569;28;20031;-75
2023/06/16 00:03:33;;;;;;;3.92;3.50;;;20.50;82.30;;;;;;4952324;28;20027;-76
2023/06/16 00:06:14;;;;;;;5.07;3.63;;;20.40;82.50;;;;;;4952266;28;20446;-76
2023/06/16 00:08:47;;;;;;;5.50;3.80;;;20.40;82.60;;;;;;4951632;28;20035;-75
2023/06/16 00:11:15;;;;;;;4.55;3.75;;;20.40;82.90;;;;;;4952062;28;20119;-75
2023/06/16 00:13:41;;;;;;;7.28;3.60;;;20.40;82.90;;;;;;4952211;28;20039;-75
2023/06/16 00:16:06;;;;;;;7.45;3.97;;;20.30;82.70;;;;;;4951987;28;20380;-76
2023/06/16 00:18:32;;;;;;;7.35;3.60;;;20.30;82.60;;;;;;4951893;28;20057;-76
2023/06/16 00:21:01;;;;;;;5.45;4.13;;;20.40;82.30;;;;;;4950766;28;20539;-75
2023/06/16 00:23:27;;;;;;;9.77;4.25;;;20.30;82.00;;;;;;4949189;28;20032;-75
2023/06/16 00:25:53;;;;;;;5.07;3.65;;;20.30;81.80;;;;;;4949728;29;20077;-76
2023/06/16 00:28:19;;;;;;;5.05;4.00;;;20.30;82.00;;;;;;4951537;28;20028;-75
2023/06/16 00:30:46;;;;;;;4.80;3.60;;;20.30;82.50;;;;;;4951948;28;20457;-75
2023/06/16 00:33:15;;;;;;;9.95;4.22;;;20.30;82.10;;;;;;4951769;28;20026;-76
2023/06/16 00:35:43;;;;;;;9.82;3.80;;;20.20;81.80;;;;;;4951888;28;20070;-76
2023/06/16 00:38:09;;;;;;;12.20;3.95;;;20.20;81.60;;;;;;4951872;28;20110;-76
2023/06/16 00:40:34;;;;;;;4.97;3.55;;;20.20;81.10;;;;;;4951814;28;20153;-75
2023/06/16 00:43:02;;;;;;;6.15;3.72;;;20.20;81.10;;;;;;4951565;28;20051;-76
2023/06/16 00:45:30;;;;;;;4.50;3.50;;;20.10;81.20;;;;;;4951686;28;20039;-75
2023/06/16 00:47:58;;;;;;;8.77;3.90;;;20.10;81.40;;;;;;4951641;28;20031;-75
2023/06/16 00:50:24;;;;;;;5.93;4.20;;;20.10;81.20;;;;;;4951627;28;20054;-76
2023/06/16 00:52:50;;;;;;;6.70;3.78;;;20.10;81.60;;;;;;5017673;28;20456;-75
2023/06/16 00:55:16;;;;;;;5.47;3.95;;;20.10;81.80;;;;;;4951419;29;20035;-76
2023/06/16 00:57:42;;;;;;;7.10;3.80;;;20.10;82.00;;;;;;4950790;28;20387;-76
2023/06/16 01:00:11;;;;;;;7.25;3.78;;;20.00;81.80;;;;;;4948855;28;20481;-75
2023/06/16 01:02:38;;;;;;;6.18;4.10;;;20.00;82.00;;;;;;4949029;28;20101;-75
2023/06/16 01:05:07;;;;;;;5.22;3.85;;;20.00;82.00;;;;;;4949849;28;20027;-75
2023/06/16 01:07:40;;;;;;;7.22;3.90;;;20.00;81.80;;;;;;4951563;28;20038;-76
2023/06/16 01:10:20;;;;;;;4.38;3.58;;;20.00;81.70;;;;;;4951613;28;20039;-76
2023/06/16 01:13:00;;;;;;;5.60;3.35;;;19.90;81.40;;;;;;4951190;28;20455;-75
2023/06/16 01:15:28;;;;;;;7.78;3.80;;;19.90;81.40;;;;;;5017338;28;20036;-75
2023/06/16 01:17:59;;;;;;;8.80;4.07;;;19.90;81.40;;;;;;4951168;28;20050;-75
2023/06/16 01:20:25;;;;;;;5.45;3.47;;;19.90;81.40;;;;;;5017163;28;20051;-75
2023/06/16 01:22:51;;;;;;;7.93;4.00;;;19.90;82.00;;;;;;4954309;28;20059;-75
2023/06/16 01:25:22;;;;;;;6.20;3.85;;;19.90;81.40;;;;;;5021333;28;20038;-75
2023/06/16 01:27:52;;;;;;;7.53;3.50;;;19.90;81.60;;;;;;4954449;28;20027;-76
2023/06/16 01:30:22;;;;;;;7.25;3.83;;;19.90;81.70;;;;;;4954417;28;20074;-76
2023/06/16 01:32:50;;;;;;;8.98;4.13;;;19.90;81.70;;;;;;4954647;28;20024;-75
2023/06/16 01:35:17;;;;;;;6.97;3.63;;;19.80;81.70;;;;;;4953856;28;20102;-75
2023/06/16 01:37:44;;;;;;;8.20;3.80;;;19.80;81.80;;;;;;4954347;28;20038;-75
2023/06/16 01:40:11;;;;;;;6.78;3.92;;;19.80;81.90;;;;;;4954423;28;20394;-75
2023/06/16 01:42:38;;;;;;;7.20;3.80;;;19.80;81.90;;;;;;4954245;29;20065;-75
2023/06/16 01:45:04;;;;;;;7.63;3.95;;;19.70;82.00;;;;;;4954527;28;20070;-76
2023/06/16 01:47:30;;;;;;;6.88;3.72;;;19.70;82.00;;;;;;4954274;28;20019;-75
2023/06/16 01:49:56;;;;;;;7.18;3.80;;;19.70;81.90;;;;;;4954111;28;20498;-75
2023/06/16 01:52:22;;;;;;;6.80;3.90;;;19.70;82.10;;;;;;4954219;28;20028;-75
2023/06/16 01:54:48;;;;;;;6.38;3.92;;;19.60;82.20;;;;;;4953949;28;20031;-76
2023/06/16 01:57:14;;;;;;;6.57;3.50;;;19.70;82.20;;;;;;4953801;29;20106;-75
2023/06/16 01:59:39;;;;;;;5.30;4.00;;;19.70;82.10;;;;;;4954128;28;20058;-76
2023/06/16 02:02:14;;;;;;;7.38;3.83;;;19.70;82.20;;;;;;4953973;28;20027;-76
2023/06/16 02:04:44;;;;;;;7.18;3.78;;;19.60;82.10;;;;;;4954141;28;20031;-76
2023/06/16 02:07:14;;;;;;;5.15;3.70;;;19.60;82.20;;;;;;4954173;28;20020;-76
2023/06/16 02:09:41;;;;;;;7.20;4.20;;;19.60;82.10;;;;;;4953682;28;20403;-74
2023/06/16 02:12:11;;;;;;;5.50;3.53;;;19.50;82.10;;;;;;4954141;28;20103;-75
2023/06/16 02:14:38;;;;;;;4.97;3.35;;;19.50;82.60;;;;;;4954159;28;20034;-75
2023/06/16 02:17:13;;;;;;;5.32;3.80;;;19.50;82.60;;;;;;4953787;28;20475;-76
2023/06/16 02:19:38;;;;;;;10.73;4.13;;;19.40;82.60;;;;;;4953349;28;20035;-75
2023/06/16 02:22:05;;;;;;;8.48;4.10;;;19.40;82.40;;;;;;4953581;29;20096;-75
2023/06/16 02:24:31;;;;;;;5.07;3.58;;;19.40;82.20;;;;;;4953981;28;20378;-75
2023/06/16 02:26:57;;;;;;;6.28;3.70;;;19.40;82.80;;;;;;4953787;28;20098;-76
2023/06/16 02:29:23;;;;;;;6.93;3.60;;;19.30;83.00;;;;;;4953768;28;20118;-76
2023/06/16 02:31:50;;;;;;;8.68;3.88;;;19.30;83.40;;;;;;4953634;28;20027;-74
2023/06/16 02:34:17;;;;;;;9.65;4.43;;;19.20;83.50;;;;;;4953556;28;20030;-75
2023/06/16 02:36:43;;;;;;;9.95;3.70;;;19.20;83.60;;;;;;4953280;28;20038;-75
2023/06/16 02:39:09;;;;;;;8.82;3.88;;;19.20;83.80;;;;;;4953457;29;20072;-76
2023/06/16 02:41:36;;;;;;;10.73;3.95;;;19.10;83.60;;;;;;4953599;28;20059;-75
2023/06/16 02:44:02;;;;;;;9.98;3.97;;;19.10;83.90;;;;;;4953521;28;20027;-75
2023/06/16 02:46:27;;;;;;;9.88;4.63;;;19.00;84.20;;;;;;4953003;29;20020;-75
2023/06/16 02:48:53;;;;;;;5.20;4.13;;;19.00;84.20;;;;;;4953620;28;20039;-75
2023/06/16 02:51:18;;;;;;;9.15;4.00;;;18.90;84.30;;;;;;5019742;28;20031;-75
2023/06/16 02:53:47;;;;;;;11.02;4.13;;;18.90;84.60;;;;;;4953369;28;20035;-76
2023/06/16 02:56:14;;;;;;;6.20;3.70;;;18.90;84.70;;;;;;4953212;28;20487;-75
2023/06/16 02:58:39;;;;;;;6.47;3.67;;;18.90;84.80;;;;;;4953230;28;20078;-75
2023/06/16 03:01:05;;;;;;;7.85;4.00;;;18.90;85.00;;;;;;4953130;28;20577;-76
2023/06/16 03:03:34;;;;;;;7.90;4.03;;;18.80;85.40;;;;;;5019655;28;20034;-76
2023/06/16 03:06:00;;;;;;;7.53;3.92;;;18.80;85.40;;;;;;4953158;28;20038;-76
2023/06/16 03:08:26;;;;;;;7.05;3.88;;;18.80;85.10;;;;;;4953217;28;20424;-76
2023/06/16 03:10:52;;;;;;;4.55;3.55;;;18.80;84.90;;;;;;4952684;28;20031;-76
2023/06/16 03:13:18;;;;;;;7.07;3.90;;;18.70;84.90;;;;;;4952685;28;20102;-75
2023/06/16 03:15:44;;;;;;;12.10;3.80;;;18.70;85.00;;;;;;4953186;28;20051;-76
2023/06/16 03:18:11;;;;;;;6.25;4.10;;;18.70;85.40;;;;;;4953078;28;20399;-75
2023/06/16 03:20:37;;;;;;;7.05;3.70;;;18.70;85.40;;;;;;4953067;28;20110;-75
2023/06/16 03:23:03;;;;;;;11.40;3.88;;;18.60;85.30;;;;;;4952989;28;20112;-75
2023/06/16 03:25:30;;;;;;;6.03;4.18;;;18.60;85.20;;;;;;4952462;29;20464;-76
2023/06/16 03:27:56;;;;;;;10.55;4.10;;;18.60;85.50;;;;;;4952281;28;20042;-75
2023/06/16 03:30:22;;;;;;;8.18;4.00;;;18.60;85.80;;;;;;4952972;28;20526;-75
2023/06/16 03:32:49;;;;;;;9.52;4.15;;;18.60;86.00;;;;;;4952902;28;20031;-76
2023/06/16 03:35:15;;;;;;;7.82;4.60;;;18.60;86.20;;;;;;4952399;28;20047;-76
2023/06/16 03:37:41;;;;;;;7.78;4.18;;;18.50;86.20;;;;;;4952829;28;20032;-75
2023/06/16 03:40:07;;;;;;;7.82;4.57;;;18.60;86.40;;;;;;4951964;28;20121;-75
2023/06/16 03:42:33;;;;;;;8.80;4.40;;;18.50;86.60;;;;;;4952458;28;20027;-76
2023/06/16 03:44:59;;;;;;;8.60;4.40;;;18.50;86.50;;;;;;4951945;28;20529;-74
2023/06/16 03:47:26;;;;;;;6.15;4.45;;;18.50;86.40;;;;;;4952669;28;20390;-76
2023/06/16 03:49:52;;;;;;;7.60;4.60;;;18.50;86.50;;;;;;4952263;28;20035;-75
2023/06/16 03:52:18;;;;;;;10.75;4.40;;;18.50;86.60;;;;;;4952421;28;20031;-75
2023/06/16 03:54:44;;;;;;;6.50;4.38;;;18.50;86.60;;;;;;4952091;28;20494;-76
2023/06/16 03:57:10;;;;;;;10.40;4.65;;;18.50;86.70;;;;;;4952046;28;20023;-75
2023/06/16 03:59:36;;;;;;;11.18;5.10;;;18.40;86.60;;;;;;5018364;28;20046;-76
2023/06/16 04:02:07;;;;;;;9.05;4.78;;;18.40;86.80;;;;;;4952403;28;20032;-75
2023/06/16 04:04:36;;;;;;;7.45;4.30;;;18.50;87.50;;;;;;4952403;28;20352;-75
2023/06/16 04:07:05;;;;;;;8.05;4.35;;;18.40;87.80;;;;;;4952204;28;20028;-74
2023/06/16 04:09:31;;;;;;;9.05;4.30;;;18.50;88.10;;;;;;4952061;28;20034;-75
2023/06/16 04:11:57;;;;;;;9.35;4.70;;;18.40;88.20;;;;;;4952408;28;20029;-75
2023/06/16 04:14:23;;;;;;;8.40;4.15;;;18.40;88.30;;;;;;4952114;28;20034;-75
2023/06/16 04:16:49;;;;;;;11.07;5.18;;;18.50;88.30;;;;;;4952015;28;20593;-75
2023/06/16 04:19:17;;;;;;;8.60;5.10;;;18.50;88.30;;;;;;4952232;28;20106;-75
2023/06/16 04:21:43;;;;;;;6.82;4.70;;;18.50;88.40;;;;;;4952046;28;20016;-74
2023/06/16 04:24:10;;;;;;;9.82;5.43;;;18.50;88.40;;;;;;4951755;28;20031;-74
2023/06/16 04:26:37;;;;;;;9.95;4.22;;;18.50;88.70;;;;;;4951784;28;20020;-75
2023/06/16 04:29:05;;;;;;;6.85;3.88;;;18.50;88.40;;;;;;4951890;28;20388;-76
2023/06/16 04:31:35;;;;;;;5.85;3.97;;;18.60;88.20;;;;;;4951891;28;20025;-75
2023/06/16 04:34:03;;;;;;;5.10;3.80;;;18.60;87.90;;;;;;4952082;28;20110;-74
2023/06/16 04:36:29;;;;;;;8.80;3.70;;;18.60;87.70;;;;;;4951633;28;20054;-75
2023/06/16 04:38:59;;;;;;;6.03;3.92;;;18.70;87.20;;;;;;5017990;28;20422;-75
2023/06/16 04:41:25;;;;;;;9.95;4.45;;;18.60;86.80;;;;;;4951712;28;20019;-75
2023/06/16 04:43:51;;;;;;;4.57;3.53;;;18.70;86.50;;;;;;4951603;28;20130;-75
2023/06/16 04:46:17;;;;;;;8.65;4.00;;;18.80;86.40;;;;;;4951229;28;20020;-75
2023/06/16 04:48:42;;;;;;;6.82;3.28;;;18.80;86.50;;;;;;4951445;28;20047;-75
2023/06/16 04:51:08;;;;;;;13.73;3.80;;;18.80;86.30;;;;;;4951508;28;20115;-74
2023/06/16 04:53:36;;;;;;;9.98;3.60;;;18.90;86.30;;;;;;4951539;28;20039;-74
2023/06/16 04:56:01;;;;;;;5.30;3.70;;;18.90;86.40;;;;;;4952151;28;20110;-75
2023/06/16 04:58:28;;;;;;;4.85;3.20;;;18.90;86.30;;;;;;4954662;28;20062;-74
2023/06/16 05:00:54;;;;;;;6.60;3.00;;;18.90;86.10;;;;;;4955045;28;20023;-75
2023/06/16 05:03:20;;;;;;;6.15;3.60;;;19.00;85.80;;;;;;4954869;28;20077;-75
2023/06/16 05:05:45;;;;;;;4.95;3.47;;;19.00;85.60;;;;;;4954671;28;20475;-75
2023/06/16 05:08:11;;;;;;;5.55;3.38;;;19.00;85.60;;;;;;4954661;28;20032;-75
2023/06/16 05:10:38;;;;;;;4.93;3.70;;;19.10;85.40;;;;;;4954909;28;20035;-74
2023/06/16 05:13:04;;;;;;;6.60;3.85;;;19.10;85.40;;;;;;4954763;28;20387;-74
2023/06/16 05:15:30;;;;;;;4.40;3.40;;;19.10;85.50;;;;;;4954808;29;20023;-75
2023/06/16 05:17:55;;;;;;;7.13;3.90;;;19.10;85.30;;;;;;4954883;28;20050;-75
2023/06/16 05:20:21;;;;;;;6.78;3.70;;;19.20;85.00;;;;;;4954657;28;20032;-75
2023/06/16 05:22:46;;;;;;;10.38;4.30;;;19.20;84.80;;;;;;4954677;28;20388;-75
2023/06/16 05:25:12;;;;;;;4.97;3.30;;;19.20;85.00;;;;;;4954378;28;20380;-75
2023/06/16 05:27:38;;;;;;;6.10;3.92;;;19.30;85.20;;;;;;4953920;28;20024;-75
2023/06/16 05:30:04;;;;;;;6.03;3.70;;;19.30;85.00;;;;;;4954467;28;20036;-75
2023/06/16 05:32:29;;;;;;;7.55;4.13;;;19.30;85.00;;;;;;4955183;28;20039;-75
2023/06/16 05:34:56;;;;;;;5.30;3.95;;;19.40;85.00;;;;;;4954286;28;20063;-74
2023/06/16 05:37:22;;;;;;;6.93;4.00;;;19.40;85.10;;;;;;4954723;28;20031;-75
2023/06/16 05:39:49;;;;;;;6.80;4.05;;;19.40;85.10;;;;;;4954297;28;20441;-75
2023/06/16 05:42:15;;;;;;;8.48;3.90;;;19.50;85.20;;;;;;4954359;28;20089;-74
2023/06/16 05:44:44;;;;;;;6.13;3.65;;;19.50;85.30;;;;;;4954604;28;20024;-75
2023/06/16 05:47:11;;;;;;;5.35;3.92;;;19.50;85.40;;;;;;4953871;28;20098;-74
2023/06/16 05:49:37;;;;;;;6.72;4.30;;;19.60;85.40;;;;;;4953940;28;20035;-75
2023/06/16 05:52:05;;;;;;;4.97;3.75;;;19.60;85.50;;;;;;4953970;28;20412;-75
2023/06/16 05:54:37;;;;;;;9.05;3.92;;;19.60;85.50;;;;;;4953929;28;20031;-75
2023/06/16 05:57:03;;;;;;;;;;;19.60;85.60;;;;;;4954340;28;20048;-77
2023/06/16 05:59:29;;;;;;;8.30;4.45;;;19.70;85.50;;;;;;4952645;28;19942;-75
2023/06/16 06:01:55;;;;;;;5.28;3.47;;;19.70;85.30;;;;;;4953884;28;20049;-74
2023/06/16 06:04:27;;;;;;;10.40;4.18;;;19.70;85.10;;;;;;4954349;28;20027;-75
2023/06/16 06:06:53;;;;;;;10.20;3.97;;;19.80;85.20;;;;;;4953527;28;20383;-75
2023/06/16 06:09:18;;;;;;;5.93;4.22;;;19.80;85.40;;;;;;4953836;28;20035;-74
2023/06/16 06:11:44;;;;;;;7.70;3.92;;;19.90;85.60;;;;;;4953983;28;20023;-75
2023/06/16 06:14:11;;;;;;;6.40;3.67;;;19.90;85.60;;;;;;4954220;28;20387;-75
2023/06/16 06:16:37;;;;;;;7.00;3.60;;;19.90;85.30;;;;;;4953856;28;20019;-75
2023/06/16 06:19:03;;;;;;;8.23;3.72;;;20.00;84.90;;;;;;4954075;28;20106;-75
2023/06/16 06:21:28;;;;;;;6.38;3.38;;;20.00;84.40;;;;;;5030443;28;20056;-75
2023/06/16 06:23:54;;;;;;;10.18;3.80;;;20.10;84.20;;;;;;5034486;28;20030;-78
2023/06/16 06:26:20;;;;;;;6.25;3.63;;;20.10;84.10;;;;;;5034563;28;20021;-76
2023/06/16 06:28:46;;;;;;;5.88;3.95;;;20.10;84.00;;;;;;5034694;28;20091;-75
2023/06/16 06:31:11;;;;;;;8.02;4.15;;;20.20;83.80;;;;;;5034832;28;20030;-74
2023/06/16 06:33:37;;;;;;;7.10;4.47;;;20.20;83.80;;;;;;5034827;28;20022;-76
2023/06/16 06:36:03;;;;;;;6.40;4.07;;;20.30;83.80;;;;;;5033026;28;20041;-75
2023/06/16 06:38:29;;;;;;;5.43;3.95;;;20.30;83.80;;;;;;5034473;28;20477;-75
2023/06/16 06:40:55;;;;;;;6.75;4.30;;;20.30;83.80;;;;;;5034387;28;20117;-76
2023/06/16 06:43:20;;;;;;;6.63;3.95;;;20.40;83.60;;;;;;5016414;28;20052;-75
2023/06/16 06:45:48;;;;;;;8.32;4.15;;;20.40;83.20;;;;;;5034718;28;20087;-76
2023/06/16 06:48:13;;;;;;;4.18;3.55;;;20.50;82.90;;;;;;5034746;28;20028;-75
2023/06/16 06:50:39;;;;;;;5.28;3.78;;;20.50;82.40;;;;;;5034703;28;20406;-75
2023/06/16 06:53:05;;;;;;;6.68;3.72;;;20.60;82.30;;;;;;5034573;28;20025;-76
2023/06/16 06:55:30;;;;;;;7.40;4.20;;;20.60;82.50;;;;;;5034476;28;20033;-75
2023/06/16 06:57:56;;;;;;;4.97;3.70;;;20.60;82.70;;;;;;5034326;28;20026;-75
2023/06/16 07:00:21;;;;;;;7.88;3.85;;;20.70;82.70;;;;;;5033698;28;20107;-75
2023/06/16 07:02:47;;;;;;;6.30;3.85;;;20.80;82.60;;;;;;5034294;28;20465;-75
2023/06/16 07:05:13;;;;;;;4.80;4.00;;;20.80;82.00;;;;;;5034471;28;20084;-75
2023/06/16 07:07:38;;;;;;;7.68;4.00;;;20.90;81.60;;;;;;5034070;28;20109;-75
2023/06/16 07:10:05;;;;;;;4.25;3.50;;;20.90;81.30;;;;;;5034223;28;20048;-76
2023/06/16 07:12:31;;;;;;;5.30;4.18;;;20.90;80.80;;;;;;5016387;28;20086;-76
2023/06/16 07:14:57;;;;;;;4.97;3.75;;;21.00;80.50;;;;;;5033893;28;20025;-75
2023/06/16 07:17:22;;;;;;;7.88;4.03;;;21.00;80.40;;;;;;5033839;28;20680;-75
2023/06/16 07:19:48;;;;;;;7.43;4.18;;;21.10;80.30;;;;;;5033088;28;20070;-75
2023/06/16 07:22:14;;;;;;;7.75;3.70;;;21.10;80.30;;;;;;5034141;28;20037;-76
2023/06/16 07:24:39;;;;;;;3.78;3.33;;;21.10;80.30;;;;;;5034151;28;20075;-75
2023/06/16 07:27:06;;;;;;;7.80;4.25;;;21.20;80.30;;;;;;5033832;28;20029;-76
2023/06/16 07:29:32;;;;;;;8.38;4.00;;;21.20;80.50;;;;;;5033846;28;20032;-75
2023/06/16 07:31:58;;;;;;;4.43;3.90;;;21.20;80.70;;;;;;5033876;28;20120;-75
2023/06/16 07:34:23;;;;;;;6.53;3.60;;;21.30;80.60;;;;;;5032957;23;20040;-76
2023/06/16 07:36:49;;;;;;;5.00;3.58;;;21.30;80.90;;;;;;4952855;28;20035;-75
2023/06/16 07:39:15;;;;;;;7.35;3.95;;;21.40;81.20;;;;;;4953203;28;20113;-76
2023/06/16 07:41:41;;;;;;;6.57;3.50;;;21.40;80.60;;;;;;4952906;28;20439;-74
2023/06/16 07:44:07;;;;;;;5.45;3.58;;;21.50;80.30;;;;;;4952886;28;20069;-74
2023/06/16 07:46:33;;;;;;;4.72;3.80;;;21.50;80.70;;;;;;4952815;28;20031;-75
2023/06/16 07:48:58;;;;;;;7.07;4.05;;;21.60;79.80;;;;;;4952851;28;20035;-76
2023/06/16 07:51:25;;;;;;;7.55;3.85;;;21.60;79.60;;;;;;4952643;28;20134;-75
2023/06/16 07:53:51;;;;;;;3.95;3.22;;;21.70;79.30;;;;;;4953016;28;20030;-76
2023/06/16 07:56:18;;;;;;;7.35;3.85;;;21.70;79.10;;;;;;4952640;28;20050;-76
2023/06/16 07:58:44;;;;;;;7.35;4.32;;;21.80;79.00;;;;;;5035412;28;20031;-75
2023/06/16 08:01:10;;;;;;;4.63;3.80;;;21.80;79.10;;;;;;4952992;28;20387;-76
2023/06/16 08:03:36;;;;;;;5.05;3.47;;;21.90;78.80;;;;;;4952641;28;20042;-75
2023/06/16 08:06:03;;;;;;;8.23;3.22;;;21.90;78.00;;;;;;4952733;28;20038;-75
2023/06/16 08:08:28;;;;;;;4.13;3.33;;;22.00;77.20;;;;;;4952536;28;20061;-76
2023/06/16 08:10:58;;;;;;;5.38;3.05;;;22.00;76.70;;;;;;4952830;28;20059;-75
2023/06/16 08:13:24;;;;;;;5.85;3.55;;;22.10;76.50;;;;;;4952694;28;20106;-75
2023/06/16 08:15:50;;;;;;;7.57;3.50;;;22.10;76.30;;;;;;4952527;28;20064;-74
2023/06/16 08:18:17;;;;;;;12.88;3.90;;;22.20;76.40;;;;;;4952459;28;20099;-76
2023/06/16 08:20:47;;;;;;;5.22;3.58;;;22.30;76.50;;;;;;4952444;28;20077;-76
2023/06/16 08:23:13;;;;;;;6.03;3.55;;;22.30;76.60;;;;;;4952431;28;20440;-74
2023/06/16 08:25:38;;;;;;;6.57;3.70;;;22.30;76.50;;;;;;4952385;28;20491;-75
2023/06/16 08:28:07;;;;;;;7.03;3.55;;;22.40;76.70;;;;;;4952499;28;20071;-76
2023/06/16 08:30:36;;;;;;;3.63;3.30;;;22.50;76.90;;;;;;4952068;28;20089;-75
2023/06/16 08:33:02;;;;;;;4.07;3.28;;;22.50;76.90;;;;;;4952020;28;20146;-75
2023/06/16 08:35:28;;;;;;;6.60;3.83;;;22.60;76.50;;;;;;4952385;28;20515;-75
2023/06/16 08:37:54;;;;;;;7.18;4.45;;;22.60;74.40;;;;;;4952235;28;20038;-76
2023/06/16 08:40:20;;;;;;;6.72;3.60;;;22.60;73.70;;;;;;4952087;28;20038;-75
2023/06/16 08:42:47;;;;;;;6.38;3.60;;;22.70;73.10;;;;;;4952090;28;20031;-75
2023/06/16 08:45:13;;;;;;;9.85;3.45;;;22.80;73.70;;;;;;5035038;28;20391;-75
2023/06/16 08:47:39;;;;;;;6.90;3.15;;;22.80;74.40;;;;;;5034584;28;20039;-76
2023/06/16 08:50:07;;;;;;;9.57;4.10;;;22.90;73.50;;;;;;4951957;28;20063;-74
2023/06/16 08:52:37;;;;;;;5.32;3.60;;;22.90;73.20;;;;;;4952074;28;20023;-76
2023/06/16 08:55:06;;;;;;;4.53;3.33;;;23.00;73.80;;;;;;4951933;28;20023;-75
2023/06/16 08:57:33;;;;;;;5.03;3.67;;;23.10;74.50;;;;;;4952067;28;20089;-75
2023/06/16 09:00:00;;;;;;;9.10;4.32;;;23.10;74.80;;;;;;4951807;28;20051;-75
2023/06/16 09:02:29;;;;;;;9.20;3.75;;;23.20;74.60;;;;;;4951898;28;20085;-75
2023/06/16 09:04:56;;;;;;;5.78;3.28;;;23.30;74.10;;;;;;4951735;28;20038;-74
2023/06/16 09:07:27;;;;;;;7.55;3.65;;;23.30;72.90;;;;;;4951989;28;20023;-75
2023/06/16 09:09:53;;;;;;;4.20;3.33;;;23.40;72.30;;;;;;4951773;28;20475;-75
2023/06/16 09:12:19;;;;;;;5.03;3.20;;;23.40;73.10;;;;;;4951807;28;20627;-75
2023/06/16 09:14:49;;;;;;;4.60;3.58;;;23.50;73.00;;;;;;4951683;28;20099;-75
2023/06/16 09:17:18;;;;;;;4.57;3.45;;;23.50;72.00;;;;;;4951778;28;20023;-76
2023/06/16 09:19:48;;;;;;;4.72;3.55;;;23.60;72.50;;;;;;4951880;28;20111;-75
2023/06/16 09:22:18;;;;;;;6.38;3.78;;;23.60;71.70;;;;;;4951657;28;20073;-75
2023/06/16 09:24:56;;;;;;;5.05;3.60;;;23.70;71.60;;;;;;5034236;28;20028;-75
2023/06/16 09:27:25;;;;;;;10.68;3.47;;;23.70;71.20;;;;;;4951473;28;20058;-75
2023/06/16 09:29:56;;;;;;;6.00;3.42;;;23.80;70.60;;;;;;4951548;28;20440;-75
2023/06/16 09:32:22;;;;;;;4.63;3.35;;;23.90;70.50;;;;;;4951599;28;20058;-75
2023/06/16 09:34:48;;;;;;;10.25;3.58;;;23.90;69.40;;;;;;4951425;28;20082;-75
2023/06/16 09:37:19;;;;;;;6.53;3.35;;;23.90;69.70;;;;;;4951470;28;20027;-75
2023/06/16 09:39:45;;;;;;;8.48;3.97;;;24.00;70.80;;;;;;4951364;28;20042;-75
2023/06/16 09:42:11;;;;;;;6.40;3.70;;;24.10;71.00;;;;;;4952251;29;20080;-76
2023/06/16 09:44:37;;;;;;;9.23;3.75;;;24.10;70.90;;;;;;4954766;28;20027;-75
2023/06/16 09:47:03;;;;;;;6.15;3.35;;;24.20;70.80;;;;;;4954753;28;20050;-75
2023/06/16 09:49:29;;;;;;;8.75;3.45;;;24.20;70.40;;;;;;4954585;28;20070;-75
2023/06/16 09:51:58;;;;;;;5.82;4.10;;;24.30;70.00;;;;;;5020947;28;20055;-75
2023/06/16 09:54:26;;;;;;;7.00;3.25;;;24.30;70.00;;;;;;4954538;28;20111;-75
2023/06/16 09:56:58;;;;;;;8.02;3.78;;;24.40;70.00;;;;;;4954739;28;20031;-75
2023/06/16 09:59:26;;;;;;;7.07;3.95;;;24.40;69.30;;;;;;4954414;28;20096;-76
2023/06/16 10:01:54;;;;;;;5.18;3.97;;;24.50;69.60;;;;;;4955027;28;20392;-75
2023/06/16 10:04:22;;;;;;;9.02;3.90;;;24.50;70.40;;;;;;4954446;28;20057;-74
2023/06/16 10:07:02;;;;;;;8.07;3.50;;;24.60;71.50;;;;;;4954444;28;20094;-76
2023/06/16 10:09:39;;;;;;;10.50;3.80;;;24.70;70.30;;;;;;4954409;28;20117;-76
2023/06/16 10:12:07;;;;;;;7.95;4.53;;;24.70;69.30;;;;;;4953953;28;20083;-76
2023/06/16 10:14:34;;;;;;;5.45;3.75;;;24.80;69.30;;;;;;4953905;28;20032;-76
2023/06/16 10:17:01;;;;;;;7.78;4.10;;;24.80;68.10;;;;;;4954053;28;20092;-76
2023/06/16 10:19:30;;;;;;;7.47;4.30;;;24.90;67.30;;;;;;4953948;28;20031;-76
2023/06/16 10:21:56;;;;;;;5.30;4.40;;;24.90;66.60;;;;;;4954204;28;20418;-75
2023/06/16 10:24:23;;;;;;;7.78;4.20;;;25.00;66.50;;;;;;4954131;28;20077;-76
2023/06/16 10:26:50;;;;;;;7.13;4.32;;;25.00;67.00;;;;;;4954198;28;20019;-75
2023/06/16 10:29:20;;;;;;;9.60;4.50;;;25.10;68.80;;;;;;4953879;29;20425;-76
2023/06/16 10:31:49;;;;;;;9.27;3.45;;;25.10;68.30;;;;;;4953974;28;20046;-76
2023/06/16 10:34:19;;;;;;;9.25;4.10;;;25.20;65.80;;;;;;4953861;28;20023;-76
2023/06/16 10:36:46;;;;;;;10.93;4.43;;;25.20;64.50;;;;;;4954026;28;20383;-75
2023/06/16 10:39:18;;;;;;;8.30;4.13;;;25.20;65.00;;;;;;5036679;28;20388;-75
2023/06/16 10:42:11;;;;;;;6.50;3.78;;;25.30;65.90;;;;;;4953853;28;20376;-75
2023/06/16 10:44:37;;;;;;;7.20;4.10;;;25.30;66.30;;;;;;4954403;28;20046;-75
2023/06/16 10:47:08;;;;;;;10.13;4.35;;;25.30;65.80;;;;;;4953692;28;20023;-76
2023/06/16 10:49:47;;;;;;;6.18;3.80;;;25.40;64.80;;;;;;4953390;28;20039;-76
2023/06/16 10:52:17;;;;;;;8.55;4.07;;;25.40;64.60;;;;;;4953285;28;20372;-75
2023/06/16 10:54:49;;;;;;;5.60;4.07;;;25.40;65.20;;;;;;5036245;28;20487;-75
2023/06/16 10:57:14;;;;;;;6.45;3.90;;;25.50;65.80;;;;;;4953613;28;20032;-76
2023/06/16 10:59:52;;;;;;;10.65;4.05;;;25.50;65.00;;;;;;4953718;28;20031;-75
2023/06/16 11:02:22;;;;;;;6.22;4.43;;;25.50;64.20;;;;;;4953479;28;20513;-74
2023/06/16 11:05:09;;;;;;;7.97;3.72;;;25.60;65.00;;;;;;4953488;28;20027;-75
2023/06/16 11:08:08;;;;;;;5.32;3.50;;;25.60;64.60;;;;;;4953471;28;20035;-75
2023/06/16 11:10:55;;;;;;;6.55;3.47;;;25.60;64.70;;;;;;4953194;28;20035;-76
2023/06/16 11:13:27;;;;;;;6.10;3.90;;;25.60;61.90;;;;;;4951168;28;20525;-77
2023/06/16 11:15:54;;;;;;;5.60;3.70;;;25.60;61.70;;;;;;4950783;28;20085;-76
2023/06/16 11:18:24;;;;;;;5.88;3.63;;;25.70;60.80;;;;;;4951739;28;20023;-75
2023/06/16 11:20:54;;;;;;;7.32;3.67;;;25.60;62.20;;;;;;4953582;28;20027;-76
2023/06/16 11:23:20;;;;;;;5.90;4.00;;;25.70;63.90;;;;;;4953358;28;20027;-76
2023/06/16 11:25:46;;;;;;;10.57;3.85;;;25.70;64.20;;;;;;4952972;28;20031;-75
2023/06/16 11:28:11;;;;;;;5.57;3.90;;;25.70;64.30;;;;;;4952852;28;20103;-76
2023/06/16 11:30:37;;;;;;;6.63;3.50;;;25.80;63.80;;;;;;4953041;28;20071;-76
2023/06/16 11:33:03;;;;;;;6.55;3.40;;;25.80;63.10;;;;;;4953327;28;20088;-76
2023/06/16 11:35:33;;;;;;;4.65;3.70;;;25.90;62.50;;;;;;4952924;28;20157;-76
2023/06/16 11:37:59;;;;;;;4.65;3.47;;;26.00;62.40;;;;;;4951639;28;20023;-76
2023/06/16 11:40:27;;;;;;;5.78;3.70;;;26.00;61.70;;;;;;5032604;28;20035;-76
2023/06/16 11:42:57;;;;;;;6.93;3.55;;;25.90;61.50;;;;;;4950197;28;20033;-74
2023/06/16 11:45:36;;;;;;;5.45;3.63;;;26.00;61.40;;;;;;4951798;28;20028;-76
2023/06/16 11:48:03;;;;;;;7.72;3.50;;;26.00;62.00;;;;;;4952632;28;20062;-76
2023/06/16 11:50:29;;;;;;;7.28;3.08;;;26.00;60.70;;;;;;4952693;28;20031;-75
2023/06/16 11:52:56;;;;;;;7.60;3.33;;;26.00;60.60;;;;;;4952048;28;20050;-76
2023/06/16 11:55:23;;;;;;;8.70;3.50;;;26.10;60.90;;;;;;4952700;28;20141;-75
2023/06/16 11:57:49;;;;;;;3.80;3.17;;;26.10;59.50;;;;;;4952768;28;20054;-75
2023/06/16 12:00:16;;;;;;;6.60;3.42;;;26.20;60.10;;;;;;4952496;28;20058;-75
2023/06/16 12:02:44;;;;;;;9.23;3.90;;;26.30;60.90;;;;;;4953063;28;20028;-76
2023/06/16 12:05:26;;;;;;;5.68;3.75;;;26.30;61.30;;;;;;4951784;28;20026;-76
2023/06/16 12:07:51;;;;;;;5.35;3.17;;;26.30;60.60;;;;;;4952562;28;20074;-75
2023/06/16 12:10:17;;;;;;;4.35;3.67;;;26.30;59.70;;;;;;4952476;28;20046;-76
2023/06/16 12:12:44;;;;;;;6.88;3.60;;;26.30;60.10;;;;;;4952683;28;20103;-76
2023/06/16 12:15:17;;;;;;;4.93;3.20;;;26.30;59.10;;;;;;4952597;28;20057;-76
2023/06/16 12:17:42;;;;;;;4.07;3.50;;;26.20;58.70;;;;;;4952532;28;20020;-76
2023/06/16 12:20:10;;;;;;;7.28;3.63;;;26.10;59.80;;;;;;4952418;28;20034;-76
2023/06/16 12:22:39;;;;;;;6.22;3.95;;;26.00;60.90;;;;;;4952343;28;20039;-76
2023/06/16 12:25:13;;;;;;;4.80;3.28;;;26.00;61.90;;;;;;4952331;28;20034;-76
2023/06/16 12:27:43;;;;;;;6.88;3.78;;;25.80;63.00;;;;;;4952464;28;20135;-74
2023/06/16 12:30:09;;;;;;;9.80;4.30;;;25.80;64.70;;;;;;4952281;28;20050;-75
2023/06/16 12:32:35;;;;;;;9.65;4.30;;;25.70;65.60;;;;;;4952122;28;20026;-77
2023/06/16 12:35:01;;;;;;;6.13;4.10;;;25.60;65.80;;;;;;4952063;28;20488;-76
2023/06/16 12:37:30;;;;;;;7.85;4.68;;;25.50;66.40;;;;;;4952198;28;20110;-75
2023/06/16 12:40:03;;;;;;;8.00;4.45;;;25.50;68.20;;;;;;4952120;28;20058;-76
2023/06/16 12:42:29;;;;;;;6.32;4.50;;;25.40;68.30;;;;;;4952003;28;20038;-77
2023/06/16 12:44:59;;;;;;;6.68;4.82;;;25.30;68.20;;;;;;4952058;28;20027;-75
2023/06/16 12:47:26;;;;;;;5.80;4.32;;;25.30;68.30;;;;;;4952098;28;20023;-75